Freeman, Indiana
Current Conditions -  °F | °C
As of 8:53 AM on Monday 24 Nov 2014 (Local Time) from KBMG Reporting Station
Overcast Overcast  
Wind Chill:   Ceiling: 1300
Heat Index:   Visibility: 10mi
Dew Point:   Wind: 21mph
Humidity: 89%   Direction: 260°W
Pressure: 29.36"   Gusts: 35mph
Location:  39.3008°N, 86.8112°W
Report Text: KBMG 241353Z 26018G30KT 10SM BKN013 OVC020 08/06 A2936 RMK AO2 PK WND 27031/1321 RAB12E29 PRESRR SLP942 P0001 T00780061
Loading
Personal Weather Stations






























Interactive Weather Map New forecast layout! Learn more

10-Day Weather Forecast

Advertisements
Track Severe Weather on mobile